sensor_id;sensor_type;location;lat;lon;timestamp;P1;durP1;ratioP1;P2;durP2;ratioP2
19560;SDS011;9927;47.792;10.616;2022-11-14T04:01:17;8.80;;;6.67;;
19560;SDS011;9927;47.792;10.616;2022-11-14T04:03:45;7.37;;;6.20;;
19560;SDS011;9927;47.792;10.616;2022-11-14T04:06:12;7.77;;;6.23;;
19560;SDS011;9927;47.792;10.616;2022-11-14T04:08:40;6.83;;;6.23;;
19560;SDS011;9927;47.792;10.616;2022-11-14T04:11:08;8.80;;;6.83;;
19560;SDS011;9927;47.792;10.616;2022-11-14T04:13:35;9.10;;;6.80;;
19560;SDS011;9927;47.792;10.616;2022-11-14T04:16:02;60.37;;;9.07;;
19560;SDS011;9927;47.792;10.616;2022-11-14T04:18:44;7.27;;;6.77;;
19560;SDS011;9927;47.792;10.616;2022-11-14T04:21:48;7.17;;;6.77;;
19560;SDS011;9927;47.792;10.616;2022-11-14T04:24:19;6.73;;;6.13;;
19560;SDS011;9927;47.792;10.616;2022-11-14T04:26:56;6.77;;;6.37;;
19560;SDS011;9927;47.792;10.616;2022-11-14T04:29:26;7.50;;;6.90;;
19560;SDS011;9927;47.792;10.616;2022-11-14T04:31:59;7.17;;;6.57;;
19560;SDS011;9927;47.792;10.616;2022-11-14T04:34:44;6.70;;;6.20;;
19560;SDS011;9927;47.792;10.616;2022-11-14T04:37:19;6.67;;;6.27;;
19560;SDS011;9927;47.792;10.616;2022-11-14T04:40:52;6.50;;;6.10;;
19560;SDS011;9927;47.792;10.616;2022-11-14T04:43:43;6.77;;;6.27;;
19560;SDS011;9927;47.792;10.616;2022-11-14T04:46:16;5.90;;;5.60;;
19560;SDS011;9927;47.792;10.616;2022-11-14T04:48:43;6.13;;;5.83;;
19560;SDS011;9927;47.792;10.616;2022-11-14T04:51:11;6.73;;;6.33;;
19560;SDS011;9927;47.792;10.616;2022-11-14T04:53:38;7.23;;;6.53;;
19560;SDS011;9927;47.792;10.616;2022-11-14T04:56:07;6.67;;;6.27;;
19560;SDS011;9927;47.792;10.616;2022-11-14T05:07:15;6.80;;;6.40;;
19560;SDS011;9927;47.792;10.616;2022-11-14T05:22:45;7.87;;;6.33;;
19560;SDS011;9927;47.792;10.616;2022-11-14T05:26:15;6.23;;;5.93;;
19560;SDS011;9927;47.792;10.616;2022-11-14T05:30:17;7.20;;;6.70;;
19560;SDS011;9927;47.792;10.616;2022-11-14T05:33:39;6.87;;;6.37;;
19560;SDS011;9927;47.792;10.616;2022-11-14T05:37:05;6.90;;;6.40;;
19560;SDS011;9927;47.792;10.616;2022-11-14T05:39:46;6.87;;;6.30;;
19560;SDS011;9927;47.792;10.616;2022-11-14T05:42:36;6.63;;;6.03;;
19560;SDS011;9927;47.792;10.616;2022-11-14T05:45:07;6.97;;;6.27;;
19560;SDS011;9927;47.792;10.616;2022-11-14T05:48:24;8.27;;;7.00;;
19560;SDS011;9927;47.792;10.616;2022-11-14T05:52:35;6.30;;;5.90;;
19560;SDS011;9927;47.792;10.616;2022-11-14T05:56:08;7.60;;;6.60;;
19560;SDS011;9927;47.792;10.616;2022-11-14T05:58:53;6.83;;;6.23;;
19560;SDS011;9927;47.792;10.616;2022-11-14T06:07:10;6.47;;;5.97;;
19560;SDS011;9927;47.792;10.616;2022-11-14T06:11:27;7.13;;;6.53;;
19560;SDS011;9927;47.792;10.616;2022-11-14T06:19:25;7.60;;;6.97;;
19560;SDS011;9927;47.792;10.616;2022-11-14T06:22:39;6.30;;;5.90;;
19560;SDS011;9927;47.792;10.616;2022-11-14T06:25:06;7.90;;;7.00;;
19560;SDS011;9927;47.792;10.616;2022-11-14T06:27:34;6.80;;;6.40;;
19560;SDS011;9927;47.792;10.616;2022-11-14T06:30:01;7.03;;;6.33;;
19560;SDS011;9927;47.792;10.616;2022-11-14T06:32:29;7.33;;;6.80;;
19560;SDS011;9927;47.792;10.616;2022-11-14T06:34:56;7.50;;;6.80;;
19560;SDS011;9927;47.792;10.616;2022-11-14T06:37:23;7.47;;;6.83;;
19560;SDS011;9927;47.792;10.616;2022-11-14T06:39:50;7.90;;;7.30;;
19560;SDS011;9927;47.792;10.616;2022-11-14T06:42:17;8.97;;;8.03;;
19560;SDS011;9927;47.792;10.616;2022-11-14T06:44:44;9.80;;;8.90;;
19560;SDS011;9927;47.792;10.616;2022-11-14T06:47:12;9.53;;;8.63;;
19560;SDS011;9927;47.792;10.616;2022-11-14T06:49:39;9.67;;;8.73;;
19560;SDS011;9927;47.792;10.616;2022-11-14T06:52:06;9.47;;;8.67;;
19560;SDS011;9927;47.792;10.616;2022-11-14T06:54:33;8.43;;;7.70;;
19560;SDS011;9927;47.792;10.616;2022-11-14T06:57:01;9.93;;;8.57;;
19560;SDS011;9927;47.792;10.616;2022-11-14T06:59:28;9.40;;;8.33;;
19560;SDS011;9927;47.792;10.616;2022-11-14T07:01:55;8.67;;;7.67;;
19560;SDS011;9927;47.792;10.616;2022-11-14T07:04:23;9.20;;;8.20;;
19560;SDS011;9927;47.792;10.616;2022-11-14T07:06:50;8.20;;;7.60;;
19560;SDS011;9927;47.792;10.616;2022-11-14T07:09:17;9.33;;;7.80;;
19560;SDS011;9927;47.792;10.616;2022-11-14T07:11:44;9.10;;;7.40;;
19560;SDS011;9927;47.792;10.616;2022-11-14T07:14:13;7.07;;;6.40;;
19560;SDS011;9927;47.792;10.616;2022-11-14T07:16:40;8.80;;;7.00;;
19560;SDS011;9927;47.792;10.616;2022-11-14T07:19:08;7.67;;;6.87;;
19560;SDS011;9927;47.792;10.616;2022-11-14T07:21:36;7.30;;;6.70;;
19560;SDS011;9927;47.792;10.616;2022-11-14T07:24:04;6.90;;;6.30;;
19560;SDS011;9927;47.792;10.616;2022-11-14T07:26:31;6.80;;;6.20;;
19560;SDS011;9927;47.792;10.616;2022-11-14T07:28:59;7.87;;;6.23;;
19560;SDS011;9927;47.792;10.616;2022-11-14T07:31:28;7.10;;;6.50;;
19560;SDS011;9927;47.792;10.616;2022-11-14T07:33:56;7.17;;;6.57;;
19560;SDS011;9927;47.792;10.616;2022-11-14T07:36:23;7.77;;;7.10;;
19560;SDS011;9927;47.792;10.616;2022-11-14T07:38:50;7.77;;;6.90;;
19560;SDS011;9927;47.792;10.616;2022-11-14T07:41:18;7.80;;;7.10;;
19560;SDS011;9927;47.792;10.616;2022-11-14T07:43:45;7.07;;;6.37;;
19560;SDS011;9927;47.792;10.616;2022-11-14T07:46:14;8.23;;;7.40;;
19560;SDS011;9927;47.792;10.616;2022-11-14T07:48:43;8.87;;;6.90;;
19560;SDS011;9927;47.792;10.616;2022-11-14T07:51:15;7.70;;;6.97;;
19560;SDS011;9927;47.792;10.616;2022-11-14T07:53:44;7.20;;;6.50;;
19560;SDS011;9927;47.792;10.616;2022-11-14T07:56:11;7.23;;;6.70;;
19560;SDS011;9927;47.792;10.616;2022-11-14T07:58:39;8.20;;;6.53;;
19560;SDS011;9927;47.792;10.616;2022-11-14T08:01:08;7.27;;;6.50;;
19560;SDS011;9927;47.792;10.616;2022-11-14T08:03:37;7.67;;;6.60;;
19560;SDS011;9927;47.792;10.616;2022-11-14T08:06:11;8.40;;;7.50;;
19560;SDS011;9927;47.792;10.616;2022-11-14T08:08:41;9.33;;;8.40;;
19560;SDS011;9927;47.792;10.616;2022-11-14T08:11:09;9.53;;;8.30;;
19560;SDS011;9927;47.792;10.616;2022-11-14T08:13:37;9.50;;;7.53;;
19560;SDS011;9927;47.792;10.616;2022-11-14T08:16:08;8.63;;;7.50;;
19560;SDS011;9927;47.792;10.616;2022-11-14T08:18:40;7.10;;;6.40;;
19560;SDS011;9927;47.792;10.616;2022-11-14T08:21:07;7.77;;;6.10;;
19560;SDS011;9927;47.792;10.616;2022-11-14T08:23:34;8.13;;;7.10;;
19560;SDS011;9927;47.792;10.616;2022-11-14T08:26:01;10.10;;;7.47;;
19560;SDS011;9927;47.792;10.616;2022-11-14T08:28:29;8.50;;;7.60;;
19560;SDS011;9927;47.792;10.616;2022-11-14T08:31:00;11.53;;;9.93;;
19560;SDS011;9927;47.792;10.616;2022-11-14T08:33:28;16.33;;;10.80;;
19560;SDS011;9927;47.792;10.616;2022-11-14T08:35:59;16.33;;;9.93;;
19560;SDS011;9927;47.792;10.616;2022-11-14T08:38:31;11.67;;;9.60;;
19560;SDS011;9927;47.792;10.616;2022-11-14T08:41:00;13.30;;;9.97;;
19560;SDS011;9927;47.792;10.616;2022-11-14T08:43:28;12.87;;;9.83;;
19560;SDS011;9927;47.792;10.616;2022-11-14T08:45:57;13.40;;;9.67;;
19560;SDS011;9927;47.792;10.616;2022-11-14T08:48:28;12.37;;;10.37;;
19560;SDS011;9927;47.792;10.616;2022-11-14T08:51:00;16.03;;;10.53;;
19560;SDS011;9927;47.792;10.616;2022-11-14T08:53:29;13.37;;;9.53;;
19560;SDS011;9927;47.792;10.616;2022-11-14T08:55:56;9.67;;;7.90;;
19560;SDS011;9927;47.792;10.616;2022-11-14T08:58:26;9.57;;;7.73;;
19560;SDS011;9927;47.792;10.616;2022-11-14T09:00:59;7.60;;;6.53;;
19560;SDS011;9927;47.792;10.616;2022-11-14T09:03:31;7.00;;;6.30;;
19560;SDS011;9927;47.792;10.616;2022-11-14T09:05:59;8.30;;;5.90;;
19560;SDS011;9927;47.792;10.616;2022-11-14T09:08:27;10.07;;;6.33;;
19560;SDS011;9927;47.792;10.616;2022-11-14T09:10:58;5.77;;;5.23;;
19560;SDS011;9927;47.792;10.616;2022-11-14T09:13:32;6.90;;;5.53;;
19560;SDS011;9927;47.792;10.616;2022-11-14T09:16:00;7.73;;;5.87;;
19560;SDS011;9927;47.792;10.616;2022-11-14T09:18:28;6.63;;;5.70;;
19560;SDS011;9927;47.792;10.616;2022-11-14T09:21:04;7.73;;;5.73;;
19560;SDS011;9927;47.792;10.616;2022-11-14T09:23:33;6.60;;;5.80;;
19560;SDS011;9927;47.792;10.616;2022-11-14T09:26:04;10.17;;;6.80;;
19560;SDS011;9927;47.792;10.616;2022-11-14T09:28:32;9.27;;;7.70;;
19560;SDS011;9927;47.792;10.616;2022-11-14T09:31:03;8.25;;;7.53;;
19560;SDS011;9927;47.792;10.616;2022-11-14T09:33:35;10.57;;;8.70;;
19560;SDS011;9927;47.792;10.616;2022-11-14T09:36:03;14.07;;;9.20;;
19560;SDS011;9927;47.792;10.616;2022-11-14T09:38:33;10.17;;;8.27;;
19560;SDS011;9927;47.792;10.616;2022-11-14T09:46:10;8.00;;;7.25;;
19560;SDS011;9927;47.792;10.616;2022-11-14T09:48:46;8.25;;;7.45;;
19560;SDS011;9927;47.792;10.616;2022-11-14T09:51:20;8.30;;;6.38;;
19560;SDS011;9927;47.792;10.616;2022-11-14T09:56:22;5.70;;;5.10;;
19560;SDS011;9927;47.792;10.616;2022-11-14T09:58:51;5.20;;;4.80;;
19560;SDS011;9927;47.792;10.616;2022-11-14T10:01:27;5.30;;;4.80;;
19560;SDS011;9927;47.792;10.616;2022-11-14T10:04:13;5.55;;;4.60;;
19560;SDS011;9927;47.792;10.616;2022-11-14T10:06:54;5.88;;;4.75;;
19560;SDS011;9927;47.792;10.616;2022-11-14T10:12:20;5.50;;;5.00;;
19560;SDS011;9927;47.792;10.616;2022-11-14T10:28:32;5.22;;;4.82;;
19560;SDS011;9927;47.792;10.616;2022-11-14T10:34:18;4.78;;;4.40;;
19560;SDS011;9927;47.792;10.616;2022-11-14T10:42:30;4.97;;;4.35;;
19560;SDS011;9927;47.792;10.616;2022-11-14T10:47:39;4.03;;;3.80;;
19560;SDS011;9927;47.792;10.616;2022-11-14T10:50:18;4.57;;;4.28;;
19560;SDS011;9927;47.792;10.616;2022-11-14T10:52:48;3.70;;;3.55;;
19560;SDS011;9927;47.792;10.616;2022-11-14T10:55:21;3.20;;;3.10;;
19560;SDS011;9927;47.792;10.616;2022-11-14T10:58:10;3.10;;;3.00;;
19560;SDS011;9927;47.792;10.616;2022-11-14T11:00:40;2.72;;;2.70;;
19560;SDS011;9927;47.792;10.616;2022-11-14T11:03:07;3.00;;;2.90;;
19560;SDS011;9927;47.792;10.616;2022-11-14T11:05:43;2.90;;;2.70;;
19560;SDS011;9927;47.792;10.616;2022-11-14T11:08:18;3.00;;;2.90;;
19560;SDS011;9927;47.792;10.616;2022-11-14T11:11:10;2.88;;;2.80;;
19560;SDS011;9927;47.792;10.616;2022-11-14T11:13:58;3.10;;;2.90;;
19560;SDS011;9927;47.792;10.616;2022-11-14T11:16:27;3.53;;;3.33;;
19560;SDS011;9927;47.792;10.616;2022-11-14T11:21:49;3.50;;;3.28;;
19560;SDS011;9927;47.792;10.616;2022-11-14T11:24:31;3.53;;;3.40;;
19560;SDS011;9927;47.792;10.616;2022-11-14T11:29:45;3.45;;;3.35;;
19560;SDS011;9927;47.792;10.616;2022-11-14T11:32:22;3.35;;;3.25;;
19560;SDS011;9927;47.792;10.616;2022-11-14T11:34:54;3.30;;;3.10;;
19560;SDS011;9927;47.792;10.616;2022-11-14T11:37:32;3.10;;;3.00;;
19560;SDS011;9927;47.792;10.616;2022-11-14T11:40:10;3.03;;;2.92;;
19560;SDS011;9927;47.792;10.616;2022-11-14T11:42:56;3.15;;;3.00;;
19560;SDS011;9927;47.792;10.616;2022-11-14T11:45:47;3.20;;;3.10;;
19560;SDS011;9927;47.792;10.616;2022-11-14T11:48:20;2.75;;;2.65;;
19560;SDS011;9927;47.792;10.616;2022-11-14T11:50:48;3.00;;;2.90;;
19560;SDS011;9927;47.792;10.616;2022-11-14T11:53:23;3.00;;;2.90;;
19560;SDS011;9927;47.792;10.616;2022-11-14T11:56:15;3.00;;;2.90;;
19560;SDS011;9927;47.792;10.616;2022-11-14T11:58:50;2.83;;;2.70;;
19560;SDS011;9927;47.792;10.616;2022-11-14T12:01:22;2.55;;;2.50;;
19560;SDS011;9927;47.792;10.616;2022-11-14T12:03:51;2.80;;;2.70;;
19560;SDS011;9927;47.792;10.616;2022-11-14T12:06:21;2.78;;;2.67;;
19560;SDS011;9927;47.792;10.616;2022-11-14T12:08:54;3.17;;;2.90;;
19560;SDS011;9927;47.792;10.616;2022-11-14T12:11:26;2.75;;;2.65;;
19560;SDS011;9927;47.792;10.616;2022-11-14T12:27:44;4.43;;;3.60;;
19560;SDS011;9927;47.792;10.616;2022-11-14T12:30:16;3.17;;;3.08;;
19560;SDS011;9927;47.792;10.616;2022-11-14T12:35:24;3.20;;;3.10;;
19560;SDS011;9927;47.792;10.616;2022-11-14T12:37:58;3.03;;;2.92;;
19560;SDS011;9927;47.792;10.616;2022-11-14T12:40:29;2.75;;;2.65;;
19560;SDS011;9927;47.792;10.616;2022-11-14T12:43:01;3.13;;;3.00;;
19560;SDS011;9927;47.792;10.616;2022-11-14T12:50:55;5.35;;;3.53;;
19560;SDS011;9927;47.792;10.616;2022-11-14T13:01:42;3.17;;;3.08;;
19560;SDS011;9927;47.792;10.616;2022-11-14T13:04:25;3.13;;;2.85;;
19560;SDS011;9927;47.792;10.616;2022-11-14T13:13:05;3.20;;;3.10;;
19560;SDS011;9927;47.792;10.616;2022-11-14T13:15:54;3.20;;;3.10;;
19560;SDS011;9927;47.792;10.616;2022-11-14T13:18:51;2.70;;;2.60;;
19560;SDS011;9927;47.792;10.616;2022-11-14T13:30:14;3.65;;;3.45;;
19560;SDS011;9927;47.792;10.616;2022-11-14T13:43:48;2.80;;;2.70;;
19560;SDS011;9927;47.792;10.616;2022-11-14T13:52:05;2.53;;;2.40;;
19560;SDS011;9927;47.792;10.616;2022-11-14T13:54:33;2.50;;;2.40;;
19560;SDS011;9927;47.792;10.616;2022-11-14T13:57:03;2.70;;;2.60;;
19560;SDS011;9927;47.792;10.616;2022-11-14T13:59:46;2.58;;;2.45;;
19560;SDS011;9927;47.792;10.616;2022-11-14T14:02:33;2.97;;;2.50;;
19560;SDS011;9927;47.792;10.616;2022-11-14T14:05:20;2.60;;;2.55;;
19560;SDS011;9927;47.792;10.616;2022-11-14T14:19:46;8.95;;;3.13;;
19560;SDS011;9927;47.792;10.616;2022-11-14T14:22:26;2.90;;;2.80;;
19560;SDS011;9927;47.792;10.616;2022-11-14T14:25:12;4.28;;;2.72;;
19560;SDS011;9927;47.792;10.616;2022-11-14T14:27:54;2.85;;;2.65;;
19560;SDS011;9927;47.792;10.616;2022-11-14T14:30:26;4.55;;;3.13;;
19560;SDS011;9927;47.792;10.616;2022-11-14T14:35:33;6.88;;;5.80;;
19560;SDS011;9927;47.792;10.616;2022-11-14T14:38:15;5.72;;;5.22;;
19560;SDS011;9927;47.792;10.616;2022-11-14T14:40:54;6.28;;;5.18;;
19560;SDS011;9927;47.792;10.616;2022-11-14T14:43:27;6.28;;;5.15;;
19560;SDS011;9927;47.792;10.616;2022-11-14T14:45:58;5.63;;;5.10;;
19560;SDS011;9927;47.792;10.616;2022-11-14T14:48:26;5.63;;;4.80;;
19560;SDS011;9927;47.792;10.616;2022-11-14T14:50:57;5.50;;;5.10;;
19560;SDS011;9927;47.792;10.616;2022-11-14T14:53:30;5.65;;;5.25;;
19560;SDS011;9927;47.792;10.616;2022-11-14T14:58:30;5.93;;;5.35;;
19560;SDS011;9927;47.792;10.616;2022-11-14T15:01:01;5.22;;;4.82;;
19560;SDS011;9927;47.792;10.616;2022-11-14T15:03:35;4.72;;;4.38;;
19560;SDS011;9927;47.792;10.616;2022-11-14T15:06:04;4.80;;;4.50;;
19560;SDS011;9927;47.792;10.616;2022-11-14T15:09:07;4.38;;;4.07;;
19560;SDS011;9927;47.792;10.616;2022-11-14T15:11:49;4.47;;;4.18;;
19560;SDS011;9927;47.792;10.616;2022-11-14T15:14:20;8.27;;;5.97;;
19560;SDS011;9927;47.792;10.616;2022-11-14T15:16:49;7.18;;;5.45;;
19560;SDS011;9927;47.792;10.616;2022-11-14T15:19:21;19.08;;;8.05;;
19560;SDS011;9927;47.792;10.616;2022-11-14T15:22:03;19.60;;;10.23;;
19560;SDS011;9927;47.792;10.616;2022-11-14T15:27:43;17.15;;;9.45;;
19560;SDS011;9927;47.792;10.616;2022-11-14T15:30:20;15.40;;;8.25;;
19560;SDS011;9927;47.792;10.616;2022-11-14T15:32:57;15.10;;;9.05;;
19560;SDS011;9927;47.792;10.616;2022-11-14T15:35:28;16.75;;;9.45;;
19560;SDS011;9927;47.792;10.616;2022-11-14T15:43:45;9.20;;;6.38;;
19560;SDS011;9927;47.792;10.616;2022-11-14T15:49:14;5.20;;;4.70;;
19560;SDS011;9927;47.792;10.616;2022-11-14T15:51:47;6.43;;;4.88;;
19560;SDS011;9927;47.792;10.616;2022-11-14T15:54:23;7.65;;;4.70;;
19560;SDS011;9927;47.792;10.616;2022-11-14T15:56:51;8.57;;;4.60;;
19560;SDS011;9927;47.792;10.616;2022-11-14T15:59:19;5.38;;;4.97;;
19560;SDS011;9927;47.792;10.616;2022-11-14T16:01:51;5.32;;;4.93;;
19560;SDS011;9927;47.792;10.616;2022-11-14T16:04:29;7.35;;;5.40;;
19560;SDS011;9927;47.792;10.616;2022-11-14T16:06:58;5.55;;;5.00;;
19560;SDS011;9927;47.792;10.616;2022-11-14T16:09:26;5.20;;;4.80;;
19560;SDS011;9927;47.792;10.616;2022-11-14T16:11:53;6.50;;;4.47;;
19560;SDS011;9927;47.792;10.616;2022-11-14T16:14:20;5.45;;;4.85;;
19560;SDS011;9927;47.792;10.616;2022-11-14T16:16:48;6.15;;;5.65;;
19560;SDS011;9927;47.792;10.616;2022-11-14T16:19:15;10.50;;;6.45;;
19560;SDS011;9927;47.792;10.616;2022-11-14T16:21:42;7.90;;;6.53;;
19560;SDS011;9927;47.792;10.616;2022-11-14T16:24:12;7.22;;;6.47;;
19560;SDS011;9927;47.792;10.616;2022-11-14T16:26:42;5.75;;;5.32;;
19560;SDS011;9927;47.792;10.616;2022-11-14T16:29:09;7.95;;;6.63;;
19560;SDS011;9927;47.792;10.616;2022-11-14T16:31:36;6.80;;;6.10;;
19560;SDS011;9927;47.792;10.616;2022-11-14T16:34:04;8.50;;;7.00;;
19560;SDS011;9927;47.792;10.616;2022-11-14T16:36:31;9.40;;;7.88;;
19560;SDS011;9927;47.792;10.616;2022-11-14T16:38:59;37.38;;;21.58;;
19560;SDS011;9927;47.792;10.616;2022-11-14T16:41:28;37.80;;;21.08;;
19560;SDS011;9927;47.792;10.616;2022-11-14T16:43:56;45.03;;;25.98;;
19560;SDS011;9927;47.792;10.616;2022-11-14T16:46:23;45.10;;;25.70;;
19560;SDS011;9927;47.792;10.616;2022-11-14T16:48:50;42.17;;;26.25;;
19560;SDS011;9927;47.792;10.616;2022-11-14T16:51:17;51.20;;;32.22;;
19560;SDS011;9927;47.792;10.616;2022-11-14T16:54:05;37.90;;;25.13;;
19560;SDS011;9927;47.792;10.616;2022-11-14T16:56:32;39.88;;;25.77;;
19560;SDS011;9927;47.792;10.616;2022-11-14T16:58:59;41.03;;;24.67;;
19560;SDS011;9927;47.792;10.616;2022-11-14T17:01:27;37.00;;;22.50;;
19560;SDS011;9927;47.792;10.616;2022-11-14T17:03:55;29.37;;;18.83;;
19560;SDS011;9927;47.792;10.616;2022-11-14T17:06:25;24.33;;;15.80;;
19560;SDS011;9927;47.792;10.616;2022-11-14T17:08:54;19.00;;;12.80;;
19560;SDS011;9927;47.792;10.616;2022-11-14T17:11:25;18.03;;;12.20;;
19560;SDS011;9927;47.792;10.616;2022-11-14T17:13:53;20.50;;;12.97;;
19560;SDS011;9927;47.792;10.616;2022-11-14T17:16:21;15.87;;;11.30;;
19560;SDS011;9927;47.792;10.616;2022-11-14T17:18:51;16.67;;;9.50;;
19560;SDS011;9927;47.792;10.616;2022-11-14T17:21:20;13.93;;;8.87;;
19560;SDS011;9927;47.792;10.616;2022-11-14T17:23:55;14.20;;;10.37;;
19560;SDS011;9927;47.792;10.616;2022-11-14T17:26:22;9.70;;;8.80;;
19560;SDS011;9927;47.792;10.616;2022-11-14T17:28:50;17.07;;;11.20;;
19560;SDS011;9927;47.792;10.616;2022-11-14T17:31:17;22.53;;;17.73;;
19560;SDS011;9927;47.792;10.616;2022-11-14T17:33:51;28.57;;;20.43;;
19560;SDS011;9927;47.792;10.616;2022-11-14T17:36:20;27.00;;;18.23;;
19560;SDS011;9927;47.792;10.616;2022-11-14T17:38:48;23.53;;;17.27;;
19560;SDS011;9927;47.792;10.616;2022-11-14T17:41:19;21.33;;;16.50;;
19560;SDS011;9927;47.792;10.616;2022-11-14T17:43:50;23.00;;;17.40;;
19560;SDS011;9927;47.792;10.616;2022-11-14T17:46:19;29.47;;;18.10;;
19560;SDS011;9927;47.792;10.616;2022-11-14T17:48:46;24.93;;;17.70;;
19560;SDS011;9927;47.792;10.616;2022-11-14T17:51:14;35.90;;;25.83;;
19560;SDS011;9927;47.792;10.616;2022-11-14T17:53:41;41.13;;;29.33;;
19560;SDS011;9927;47.792;10.616;2022-11-14T17:56:13;32.10;;;24.47;;
19560;SDS011;9927;47.792;10.616;2022-11-14T17:58:41;32.57;;;23.77;;
19560;SDS011;9927;47.792;10.616;2022-11-14T18:01:10;32.47;;;23.07;;
19560;SDS011;9927;47.792;10.616;2022-11-14T18:03:39;30.20;;;23.83;;
19560;SDS011;9927;47.792;10.616;2022-11-14T18:06:07;34.87;;;25.90;;
19560;SDS011;9927;47.792;10.616;2022-11-14T18:08:36;22.87;;;17.70;;
19560;SDS011;9927;47.792;10.616;2022-11-14T18:11:04;19.00;;;15.57;;
19560;SDS011;9927;47.792;10.616;2022-11-14T18:13:33;21.50;;;16.53;;
19560;SDS011;9927;47.792;10.616;2022-11-14T18:16:01;21.57;;;16.53;;
19560;SDS011;9927;47.792;10.616;2022-11-14T18:18:33;20.17;;;16.13;;
19560;SDS011;9927;47.792;10.616;2022-11-14T18:21:05;21.10;;;16.87;;
19560;SDS011;9927;47.792;10.616;2022-11-14T18:23:43;22.93;;;16.67;;
19560;SDS011;9927;47.792;10.616;2022-11-14T18:26:16;27.63;;;20.17;;
19560;SDS011;9927;47.792;10.616;2022-11-14T18:28:44;18.10;;;15.07;;
19560;SDS011;9927;47.792;10.616;2022-11-14T18:31:11;17.17;;;14.37;;
19560;SDS011;9927;47.792;10.616;2022-11-14T18:33:40;20.83;;;15.07;;
19560;SDS011;9927;47.792;10.616;2022-11-14T18:36:09;17.43;;;13.23;;
19560;SDS011;9927;47.792;10.616;2022-11-14T18:38:38;22.33;;;15.37;;
19560;SDS011;9927;47.792;10.616;2022-11-14T18:41:07;20.70;;;13.67;;
19560;SDS011;9927;47.792;10.616;2022-11-14T18:43:35;19.50;;;15.97;;
19560;SDS011;9927;47.792;10.616;2022-11-14T18:46:06;22.80;;;18.20;;
19560;SDS011;9927;47.792;10.616;2022-11-14T18:48:38;32.07;;;25.07;;
19560;SDS011;9927;47.792;10.616;2022-11-14T18:51:11;74.27;;;44.23;;
19560;SDS011;9927;47.792;10.616;2022-11-14T18:53:40;82.60;;;46.77;;
19560;SDS011;9927;47.792;10.616;2022-11-14T18:56:11;74.23;;;45.20;;
19560;SDS011;9927;47.792;10.616;2022-11-14T18:58:40;73.63;;;45.77;;
19560;SDS011;9927;47.792;10.616;2022-11-14T19:01:15;69.53;;;43.33;;
19560;SDS011;9927;47.792;10.616;2022-11-14T19:03:53;66.33;;;41.23;;
19560;SDS011;9927;47.792;10.616;2022-11-14T19:06:22;63.50;;;39.80;;
19560;SDS011;9927;47.792;10.616;2022-11-14T19:08:49;50.20;;;33.43;;
19560;SDS011;9927;47.792;10.616;2022-11-14T19:11:21;38.37;;;28.10;;
19560;SDS011;9927;47.792;10.616;2022-11-14T19:14:07;37.33;;;27.87;;
19560;SDS011;9927;47.792;10.616;2022-11-14T19:16:34;36.70;;;27.07;;
19560;SDS011;9927;47.792;10.616;2022-11-14T19:19:05;37.53;;;26.87;;
19560;SDS011;9927;47.792;10.616;2022-11-14T19:21:33;34.00;;;24.90;;
19560;SDS011;9927;47.792;10.616;2022-11-14T19:24:02;28.40;;;20.00;;
19560;SDS011;9927;47.792;10.616;2022-11-14T19:26:29;22.33;;;17.23;;
19560;SDS011;9927;47.792;10.616;2022-11-14T19:29:00;20.50;;;16.27;;
19560;SDS011;9927;47.792;10.616;2022-11-14T19:31:29;19.00;;;14.30;;
19560;SDS011;9927;47.792;10.616;2022-11-14T19:33:56;20.63;;;14.30;;
19560;SDS011;9927;47.792;10.616;2022-11-14T19:36:24;17.23;;;13.47;;
19560;SDS011;9927;47.792;10.616;2022-11-14T19:39:11;17.23;;;13.57;;
19560;SDS011;9927;47.792;10.616;2022-11-14T19:41:39;16.03;;;12.97;;
19560;SDS011;9927;47.792;10.616;2022-11-14T19:44:06;20.53;;;14.47;;
19560;SDS011;9927;47.792;10.616;2022-11-14T19:46:34;17.20;;;14.17;;
19560;SDS011;9927;47.792;10.616;2022-11-14T19:49:02;16.57;;;14.20;;
19560;SDS011;9927;47.792;10.616;2022-11-14T19:51:30;18.70;;;13.63;;
19560;SDS011;9927;47.792;10.616;2022-11-14T19:53:59;19.13;;;12.90;;
19560;SDS011;9927;47.792;10.616;2022-11-14T19:56:27;19.27;;;14.30;;
19560;SDS011;9927;47.792;10.616;2022-11-14T19:58:54;20.87;;;15.33;;
19560;SDS011;9927;47.792;10.616;2022-11-14T20:01:23;18.50;;;13.97;;
19560;SDS011;9927;47.792;10.616;2022-11-14T20:03:53;14.97;;;12.50;;
19560;SDS011;9927;47.792;10.616;2022-11-14T20:06:28;15.30;;;12.57;;
19560;SDS011;9927;47.792;10.616;2022-11-14T20:08:59;22.00;;;16.03;;
19560;SDS011;9927;47.792;10.616;2022-11-14T20:11:29;17.77;;;14.53;;
19560;SDS011;9927;47.792;10.616;2022-11-14T20:13:56;20.53;;;15.60;;
19560;SDS011;9927;47.792;10.616;2022-11-14T20:16:25;21.10;;;16.83;;
19560;SDS011;9927;47.792;10.616;2022-11-14T20:18:54;25.47;;;18.73;;
19560;SDS011;9927;47.792;10.616;2022-11-14T20:21:26;25.13;;;17.50;;
19560;SDS011;9927;47.792;10.616;2022-11-14T20:23:55;21.00;;;15.57;;
19560;SDS011;9927;47.792;10.616;2022-11-14T20:26:22;18.40;;;15.53;;
19560;SDS011;9927;47.792;10.616;2022-11-14T20:28:50;16.50;;;13.83;;
19560;SDS011;9927;47.792;10.616;2022-11-14T20:31:20;16.00;;;12.97;;
19560;SDS011;9927;47.792;10.616;2022-11-14T20:33:50;14.20;;;11.83;;
19560;SDS011;9927;47.792;10.616;2022-11-14T20:36:19;13.30;;;11.47;;
19560;SDS011;9927;47.792;10.616;2022-11-14T20:38:48;15.37;;;12.50;;
19560;SDS011;9927;47.792;10.616;2022-11-14T20:41:16;15.83;;;13.20;;
19560;SDS011;9927;47.792;10.616;2022-11-14T20:43:43;14.57;;;13.07;;
19560;SDS011;9927;47.792;10.616;2022-11-14T20:46:12;15.40;;;13.57;;
19560;SDS011;9927;47.792;10.616;2022-11-14T20:48:41;15.23;;;12.33;;
19560;SDS011;9927;47.792;10.616;2022-11-14T20:51:16;14.00;;;12.13;;
19560;SDS011;9927;47.792;10.616;2022-11-14T20:53:46;19.10;;;14.83;;
19560;SDS011;9927;47.792;10.616;2022-11-14T20:56:14;23.67;;;17.30;;
19560;SDS011;9927;47.792;10.616;2022-11-14T20:58:43;24.40;;;17.50;;
19560;SDS011;9927;47.792;10.616;2022-11-14T21:01:12;23.13;;;16.90;;
19560;SDS011;9927;47.792;10.616;2022-11-14T21:03:40;23.20;;;17.33;;
19560;SDS011;9927;47.792;10.616;2022-11-14T21:06:07;27.40;;;19.63;;
19560;SDS011;9927;47.792;10.616;2022-11-14T21:08:37;25.63;;;18.33;;
19560;SDS011;9927;47.792;10.616;2022-11-14T21:11:09;21.03;;;17.00;;
19560;SDS011;9927;47.792;10.616;2022-11-14T21:13:43;24.13;;;16.50;;
19560;SDS011;9927;47.792;10.616;2022-11-14T21:16:28;24.13;;;17.83;;
19560;SDS011;9927;47.792;10.616;2022-11-14T21:18:57;21.40;;;17.23;;
19560;SDS011;9927;47.792;10.616;2022-11-14T21:21:26;21.80;;;17.13;;
19560;SDS011;9927;47.792;10.616;2022-11-14T21:23:54;25.20;;;19.03;;
19560;SDS011;9927;47.792;10.616;2022-11-14T21:26:22;20.70;;;14.43;;
19560;SDS011;9927;47.792;10.616;2022-11-14T21:28:54;17.37;;;14.80;;
19560;SDS011;9927;47.792;10.616;2022-11-14T21:33:59;17.77;;;13.73;;
19560;SDS011;9927;47.792;10.616;2022-11-14T21:36:29;16.57;;;13.37;;
19560;SDS011;9927;47.792;10.616;2022-11-14T21:39:11;15.73;;;12.50;;
19560;SDS011;9927;47.792;10.616;2022-11-14T21:41:41;16.47;;;12.20;;
19560;SDS011;9927;47.792;10.616;2022-11-14T21:44:10;14.03;;;11.93;;
19560;SDS011;9927;47.792;10.616;2022-11-14T21:46:39;16.50;;;13.37;;
19560;SDS011;9927;47.792;10.616;2022-11-14T21:49:07;17.30;;;12.17;;
19560;SDS011;9927;47.792;10.616;2022-11-14T21:51:35;17.40;;;12.90;;
19560;SDS011;9927;47.792;10.616;2022-11-14T21:54:02;16.27;;;12.63;;
19560;SDS011;9927;47.792;10.616;2022-11-14T21:56:31;17.37;;;13.83;;
19560;SDS011;9927;47.792;10.616;2022-11-14T21:59:00;17.70;;;13.60;;
